PWSweather.com
Personal Weather Stations
Station Observations
WATERF01
WaterfordIE

WaterfordIE

Lat: 52.2412507, Lon: -7.1414691

Elevation: 65

Station Type: Davis Vantage Vue

www.waterfordweather.com

High Low Average
Temperature 52.2°F11.2°C 41.9°F5.5°C 46.2°F7.9°C
Dew Point 48.9°F9.4°C 37.6°F3.1°C 40.9°F4.9°C
Winds 20.7 mph 33.3 kmh Calm Calm 5.0 mph SW8.0 kmh SW
Wind Gusts 41.4 mph66.6 kmh -- 10.0 mph16.1 kmh
Humidity 89% 73% 82%
Pressure 29.47 in998.0 mb 29.09 in985.1 mb -
Precipitation 0.20 in5.1 mm - -
Hour Temp Dew Point Humidity Winds Wind Gusts Pressure Precip Precip Rate Daily Precip Total
12:00 AM 43.8°F6.6°C 39.3°F4.1°C 84% 3.5 mph WSW5.6 kmh WSW 5.8 mph9.3 kmh 29.46 in997.6 mb - 0.00 in0.0 mm 0.00 in0.0 mm
12:10 AM 43.6°F6.4°C 39.4°F4.1°C 85% 3.5 mph NW5.6 kmh NW 5.8 mph9.3 kmh 29.47 in998.0 mb - 0.00 in0.0 mm 0.00 in0.0 mm
12:20 AM 43.5°F6.4°C 39.3°F4.1°C 85% 1.2 mph SW1.9 kmh SW 4.6 mph7.4 kmh 29.46 in997.6 mb - 0.01 in0.3 mm 0.01 in0.3 mm
12:30 AM 43.4°F6.3°C 39.5°F4.2°C 86% Calm Calm -- 29.45 in997.3 mb - 0.00 in0.0 mm 0.01 in0.3 mm
12:40 AM 43.3°F6.3°C 39.4°F4.1°C 86% Calm Calm -- 29.44 in997.0 mb - 0.00 in0.0 mm 0.01 in0.3 mm
12:50 AM 43.2°F6.2°C 39.3°F4.1°C 86% Calm Calm 1.2 mph1.9 kmh 29.44 in997.0 mb - 0.01 in0.3 mm 0.02 in0.5 mm
01:00 AM 43.3°F6.3°C 39.7°F4.3°C 87% Calm Calm -- 29.42 in996.3 mb - 0.02 in0.5 mm 0.04 in1.0 mm
01:10 AM 43.0°F6.1°C 39.4°F4.1°C 87% Calm Calm 2.3 mph3.7 kmh 29.41 in995.9 mb - 0.01 in0.3 mm 0.05 in1.3 mm
01:20 AM 42.9°F6.1°C 39.3°F4.1°C 87% Calm Calm -- 29.40 in995.6 mb - 0.01 in0.3 mm 0.06 in1.5 mm
01:30 AM 42.9°F6.1°C 39.3°F4.1°C 87% 3.5 mph SE5.6 kmh SE 5.8 mph9.3 kmh 29.38 in994.9 mb - 0.01 in0.3 mm 0.07 in1.8 mm
01:40 AM 43.0°F6.1°C 39.4°F4.1°C 87% Calm Calm -- 29.38 in994.9 mb - 0.01 in0.3 mm 0.08 in2.0 mm
01:50 AM 43.1°F6.2°C 39.5°F4.2°C 87% 2.3 mph ESE3.7 kmh ESE 6.9 mph11.1 kmh 29.36 in994.2 mb - 0.01 in0.3 mm 0.09 in2.3 mm
02:00 AM 43.2°F6.2°C 39.9°F4.4°C 88% Calm Calm 5.8 mph9.3 kmh 29.36 in994.2 mb - 0.01 in0.3 mm 0.10 in2.5 mm
02:10 AM 43.3°F6.3°C 40.0°F4.4°C 88% Calm Calm -- 29.36 in994.2 mb - 0.01 in0.3 mm 0.11 in2.8 mm
02:20 AM 43.4°F6.3°C 40.1°F4.5°C 88% 1.2 mph ESE1.9 kmh ESE 2.3 mph3.7 kmh 29.34 in993.6 mb - 0.01 in0.3 mm 0.12 in3.0 mm
02:30 AM 43.6°F6.4°C 40.3°F4.6°C 88% 4.6 mph SE7.4 kmh SE 8.1 mph13.0 kmh 29.34 in993.6 mb - 0.01 in0.3 mm 0.13 in3.3 mm
02:40 AM 43.9°F6.6°C 40.6°F4.8°C 88% 1.2 mph E1.9 kmh E 4.6 mph7.4 kmh 29.33 in993.2 mb - 0.02 in0.5 mm 0.14 in3.6 mm
02:50 AM 44.0°F6.7°C 40.7°F4.8°C 88% 5.8 mph SE9.3 kmh SE 8.1 mph13.0 kmh 29.32 in992.9 mb - 0.01 in0.3 mm 0.15 in3.8 mm
03:00 AM 44.2°F6.8°C 40.9°F4.9°C 88% 3.5 mph SSW5.6 kmh SSW 4.6 mph7.4 kmh 29.32 in992.9 mb - 0.01 in0.3 mm 0.16 in4.1 mm
03:10 AM 44.8°F7.1°C 41.7°F5.4°C 89% 4.6 mph S7.4 kmh S 8.1 mph13.0 kmh 29.30 in992.2 mb - 0.01 in0.3 mm 0.17 in4.3 mm
03:20 AM 45.3°F7.4°C 42.2°F5.7°C 89% 11.5 mph SSE18.5 kmh SSE 16.1 mph25.9 kmh 29.28 in991.5 mb - 0.01 in0.3 mm 0.18 in4.6 mm
03:30 AM 45.9°F7.7°C 42.8°F6.0°C 89% 6.9 mph S11.1 kmh S 9.2 mph14.8 kmh 29.27 in991.2 mb - 0.00 in0.0 mm 0.18 in4.6 mm
03:40 AM 46.4°F8.0°C 43.4°F6.3°C 89% 8.1 mph S13.0 kmh S 9.2 mph14.8 kmh 29.26 in990.9 mb - 0.00 in0.0 mm 0.18 in4.6 mm
03:50 AM 46.9°F8.3°C 43.8°F6.6°C 89% 6.9 mph S11.1 kmh S 8.1 mph13.0 kmh 29.25 in990.5 mb - 0.00 in0.0 mm 0.18 in4.6 mm
04:00 AM 47.4°F8.6°C 44.3°F6.8°C 89% 9.2 mph S14.8 kmh S 11.5 mph18.5 kmh 29.24 in990.2 mb - 0.00 in0.0 mm 0.18 in4.6 mm
04:10 AM 47.8°F8.8°C 44.7°F7.1°C 89% 3.5 mph SW5.6 kmh SW 9.2 mph14.8 kmh 29.23 in989.8 mb - 0.00 in0.0 mm 0.18 in4.6 mm
04:20 AM 48.1°F8.9°C 45.0°F7.2°C 89% 4.6 mph WSW7.4 kmh WSW 8.1 mph13.0 kmh 29.21 in989.2 mb - 0.00 in0.0 mm 0.18 in4.6 mm
04:30 AM 48.5°F9.2°C 45.4°F7.4°C 89% 6.9 mph WSW11.1 kmh WSW 11.5 mph18.5 kmh 29.20 in988.8 mb - 0.01 in0.3 mm 0.19 in4.8 mm
04:40 AM 49.0°F9.4°C 45.9°F7.7°C 89% 6.9 mph WSW11.1 kmh WSW 11.5 mph18.5 kmh 29.20 in988.8 mb - 0.00 in0.0 mm 0.19 in4.8 mm
04:50 AM 49.4°F9.7°C 46.3°F7.9°C 89% 4.6 mph W7.4 kmh W 11.5 mph18.5 kmh 29.20 in988.8 mb - 0.00 in0.0 mm 0.19 in4.8 mm
05:00 AM 49.9°F9.9°C 46.8°F8.2°C 89% 5.8 mph NW9.3 kmh NW 11.5 mph18.5 kmh 29.18 in988.1 mb - 0.00 in0.0 mm 0.19 in4.8 mm
05:10 AM 50.2°F10.1°C 47.1°F8.4°C 89% 6.9 mph WSW11.1 kmh WSW 13.8 mph22.2 kmh 29.18 in988.1 mb - 0.00 in0.0 mm 0.19 in4.8 mm
05:20 AM 50.7°F10.4°C 47.6°F8.7°C 89% 9.2 mph W14.8 kmh W 13.8 mph22.2 kmh 29.17 in987.8 mb - 0.00 in0.0 mm 0.19 in4.8 mm
05:30 AM 51.0°F10.6°C 47.8°F8.8°C 89% 6.9 mph WSW11.1 kmh WSW 16.1 mph25.9 kmh 29.17 in987.8 mb - 0.00 in0.0 mm 0.19 in4.8 mm
05:40 AM 51.2°F10.7°C 48.1°F8.9°C 89% 9.2 mph WSW14.8 kmh WSW 13.8 mph22.2 kmh 29.17 in987.8 mb - 0.00 in0.0 mm 0.19 in4.8 mm
05:50 AM 51.6°F10.9°C 48.5°F9.2°C 89% 10.4 mph WNW16.7 kmh WNW 18.4 mph29.6 kmh 29.16 in987.5 mb - 0.00 in0.0 mm 0.19 in4.8 mm
06:00 AM 52.0°F11.1°C 48.9°F9.4°C 89% 4.6 mph WNW7.4 kmh WNW 8.1 mph13.0 kmh 29.16 in987.5 mb - 0.00 in0.0 mm 0.19 in4.8 mm
06:10 AM 52.1°F11.2°C 48.7°F9.3°C 88% 2.3 mph W3.7 kmh W 4.6 mph7.4 kmh 29.15 in987.1 mb - 0.00 in0.0 mm 0.19 in4.8 mm
06:20 AM 52.0°F11.1°C 48.6°F9.2°C 88% Calm Calm 1.2 mph1.9 kmh 29.14 in986.8 mb - 0.00 in0.0 mm 0.19 in4.8 mm
06:30 AM 51.8°F11.0°C 48.1°F8.9°C 87% 8.1 mph W13.0 kmh W 13.8 mph22.2 kmh 29.14 in986.8 mb - 0.00 in0.0 mm 0.19 in4.8 mm
06:40 AM 52.1°F11.2°C 48.0°F8.9°C 86% 8.1 mph WSW13.0 kmh WSW 16.1 mph25.9 kmh 29.13 in986.5 mb - 0.00 in0.0 mm 0.19 in4.8 mm
06:50 AM 52.1°F11.2°C 47.4°F8.6°C 84% 10.4 mph W16.7 kmh W 16.1 mph25.9 kmh 29.12 in986.1 mb - 0.00 in0.0 mm 0.19 in4.8 mm
07:00 AM 52.2°F11.2°C 46.9°F8.3°C 82% 10.4 mph W16.7 kmh W 18.4 mph29.6 kmh 29.11 in985.8 mb - 0.00 in0.0 mm 0.19 in4.8 mm
07:10 AM 52.1°F11.2°C 46.4°F8.0°C 81% 10.4 mph W16.7 kmh W 23.0 mph37.0 kmh 29.10 in985.4 mb - 0.00 in0.0 mm 0.19 in4.8 mm
07:20 AM 51.9°F11.1°C 46.3°F7.9°C 81% 10.4 mph W16.7 kmh W 13.8 mph22.2 kmh 29.11 in985.8 mb - 0.00 in0.0 mm 0.19 in4.8 mm
07:30 AM 51.9°F11.1°C 45.9°F7.7°C 80% 11.5 mph WNW18.5 kmh WNW 19.6 mph31.5 kmh 29.11 in985.8 mb - 0.00 in0.0 mm 0.19 in4.8 mm
07:40 AM 51.8°F11.0°C 45.8°F7.7°C 80% 8.1 mph W13.0 kmh W 13.8 mph22.2 kmh 29.10 in985.4 mb - 0.00 in0.0 mm 0.19 in4.8 mm
07:50 AM 51.4°F10.8°C 45.4°F7.4°C 80% 9.2 mph W14.8 kmh W 21.9 mph35.2 kmh 29.10 in985.4 mb - 0.00 in0.0 mm 0.19 in4.8 mm
08:00 AM 51.2°F10.7°C 44.9°F7.2°C 79% 12.7 mph W20.4 kmh W 20.7 mph33.3 kmh 29.09 in985.1 mb - 0.00 in0.0 mm 0.19 in4.8 mm
08:10 AM 51.0°F10.6°C 44.4°F6.9°C 78% 12.7 mph W20.4 kmh W 25.3 mph40.7 kmh 29.09 in985.1 mb - 0.00 in0.0 mm 0.19 in4.8 mm
08:20 AM 50.8°F10.4°C 44.2°F6.8°C 78% 9.2 mph W14.8 kmh W 16.1 mph25.9 kmh 29.09 in985.1 mb - 0.00 in0.0 mm 0.19 in4.8 mm
08:30 AM 50.6°F10.3°C 44.0°F6.7°C 78% 10.4 mph W16.7 kmh W 16.1 mph25.9 kmh 29.09 in985.1 mb - 0.00 in0.0 mm 0.19 in4.8 mm
08:40 AM 50.7°F10.4°C 44.1°F6.7°C 78% 12.7 mph W20.4 kmh W 16.1 mph25.9 kmh 29.10 in985.4 mb - 0.00 in0.0 mm 0.19 in4.8 mm
08:50 AM 50.6°F10.3°C 44.3°F6.8°C 79% 12.7 mph W20.4 kmh W 16.1 mph25.9 kmh 29.10 in985.4 mb - 0.00 in0.0 mm 0.19 in4.8 mm
09:00 AM 50.9°F10.5°C 44.9°F7.2°C 80% 10.4 mph W16.7 kmh W 13.8 mph22.2 kmh 29.11 in985.8 mb - 0.00 in0.0 mm 0.19 in4.8 mm
09:10 AM 51.2°F10.7°C 45.2°F7.3°C 80% 11.5 mph W18.5 kmh W 13.8 mph22.2 kmh 29.12 in986.1 mb - 0.00 in0.0 mm 0.19 in4.8 mm
09:20 AM 51.6°F10.9°C 45.6°F7.6°C 80% 10.4 mph W16.7 kmh W 13.8 mph22.2 kmh 29.13 in986.5 mb - 0.00 in0.0 mm 0.19 in4.8 mm
09:30 AM 51.3°F10.7°C 45.7°F7.6°C 81% 13.8 mph NW22.2 kmh NW 25.3 mph40.7 kmh 29.14 in986.8 mb - 0.00 in0.0 mm 0.19 in4.8 mm
09:40 AM 49.9°F9.9°C 43.4°F6.3°C 78% 18.4 mph WNW29.6 kmh WNW 41.4 mph66.6 kmh 29.18 in988.1 mb - 0.00 in0.0 mm 0.19 in4.8 mm
09:50 AM 47.6°F8.7°C 40.5°F4.7°C 76% 17.3 mph WNW27.8 kmh WNW 26.5 mph42.6 kmh 29.19 in988.5 mb - 0.00 in0.0 mm 0.19 in4.8 mm
10:00 AM 46.9°F8.3°C 40.7°F4.8°C 79% 19.6 mph WNW31.5 kmh WNW 36.8 mph59.2 kmh 29.22 in989.5 mb - 0.00 in0.0 mm 0.19 in4.8 mm
10:10 AM 46.4°F8.0°C 39.9°F4.4°C 78% 20.7 mph NW33.3 kmh NW 39.1 mph62.9 kmh 29.25 in990.5 mb - 0.00 in0.0 mm 0.19 in4.8 mm
10:20 AM 46.5°F8.1°C 39.7°F4.3°C 77% 15.0 mph NW24.1 kmh NW 25.3 mph40.7 kmh 29.27 in991.2 mb - 0.00 in0.0 mm 0.19 in4.8 mm
10:30 AM 46.5°F8.1°C 40.0°F4.4°C 78% 12.7 mph NW20.4 kmh NW 34.5 mph55.5 kmh 29.28 in991.5 mb - 0.00 in0.0 mm 0.19 in4.8 mm
10:40 AM 46.5°F8.1°C 40.0°F4.4°C 78% 12.7 mph WNW20.4 kmh WNW 19.6 mph31.5 kmh 29.30 in992.2 mb - 0.00 in0.0 mm 0.19 in4.8 mm
10:50 AM 46.4°F8.0°C 39.6°F4.2°C 77% 16.1 mph NW25.9 kmh NW 25.3 mph40.7 kmh 29.32 in992.9 mb - 0.00 in0.0 mm 0.19 in4.8 mm
11:00 AM 46.3°F7.9°C 39.2°F4.0°C 76% 15.0 mph WNW24.1 kmh WNW 25.3 mph40.7 kmh 29.32 in992.9 mb - 0.00 in0.0 mm 0.19 in4.8 mm
11:10 AM 46.5°F8.1°C 39.3°F4.1°C 76% 10.4 mph WNW16.7 kmh WNW 12.7 mph20.4 kmh 29.33 in993.2 mb - 0.00 in0.0 mm 0.19 in4.8 mm
11:20 AM 46.5°F8.1°C 39.3°F4.1°C 76% 12.7 mph W20.4 kmh W 23.0 mph37.0 kmh 29.34 in993.6 mb - 0.00 in0.0 mm 0.19 in4.8 mm
11:30 AM 46.3°F7.9°C 39.5°F4.2°C 77% 8.1 mph W13.0 kmh W 12.7 mph20.4 kmh 29.36 in994.2 mb - 0.00 in0.0 mm 0.19 in4.8 mm
11:40 AM 46.0°F7.8°C 39.9°F4.4°C 79% 11.5 mph WNW18.5 kmh WNW 21.9 mph35.2 kmh 29.36 in994.2 mb - 0.00 in0.0 mm 0.19 in4.8 mm
11:50 AM 46.0°F7.8°C 40.2°F4.6°C 80% 11.5 mph WNW18.5 kmh WNW 20.7 mph33.3 kmh 29.36 in994.2 mb - 0.00 in0.0 mm 0.19 in4.8 mm
12:00 PM 46.1°F7.8°C 40.3°F4.6°C 80% 13.8 mph WNW22.2 kmh WNW 21.9 mph35.2 kmh 29.37 in994.6 mb - 0.00 in0.0 mm 0.19 in4.8 mm
12:10 PM 46.7°F8.2°C 39.5°F4.2°C 76% 10.4 mph WNW16.7 kmh WNW 19.6 mph31.5 kmh 29.37 in994.6 mb - 0.00 in0.0 mm 0.19 in4.8 mm
12:20 PM 46.9°F8.3°C 39.4°F4.1°C 75% 10.4 mph NW16.7 kmh NW 18.4 mph29.6 kmh 29.37 in994.6 mb - 0.00 in0.0 mm 0.19 in4.8 mm
12:30 PM 47.1°F8.4°C 39.2°F4.0°C 74% 11.5 mph WNW18.5 kmh WNW 19.6 mph31.5 kmh 29.38 in994.9 mb - 0.00 in0.0 mm 0.19 in4.8 mm
12:40 PM 47.3°F8.5°C 39.1°F3.9°C 73% 9.2 mph WNW14.8 kmh WNW 21.9 mph35.2 kmh 29.37 in994.6 mb - 0.00 in0.0 mm 0.19 in4.8 mm
12:50 PM 47.1°F8.4°C 39.6°F4.2°C 75% 10.4 mph W16.7 kmh W 16.1 mph25.9 kmh 29.38 in994.9 mb - 0.00 in0.0 mm 0.19 in4.8 mm
01:00 PM 46.7°F8.2°C 39.9°F4.4°C 77% 6.9 mph W11.1 kmh W 11.5 mph18.5 kmh 29.39 in995.3 mb - 0.00 in0.0 mm 0.19 in4.8 mm
01:10 PM 46.8°F8.2°C 40.0°F4.4°C 77% 9.2 mph WNW14.8 kmh WNW 18.4 mph29.6 kmh 29.39 in995.3 mb - 0.00 in0.0 mm 0.19 in4.8 mm
01:20 PM 47.3°F8.5°C 39.7°F4.3°C 75% 10.4 mph WNW16.7 kmh WNW 18.4 mph29.6 kmh 29.39 in995.3 mb - 0.00 in0.0 mm 0.19 in4.8 mm
01:30 PM 47.4°F8.6°C 39.5°F4.2°C 74% 10.4 mph W16.7 kmh W 18.4 mph29.6 kmh 29.39 in995.3 mb - 0.00 in0.0 mm 0.19 in4.8 mm
01:40 PM 47.6°F8.7°C 40.1°F4.5°C 75% 10.4 mph WNW16.7 kmh WNW 12.7 mph20.4 kmh 29.39 in995.3 mb - 0.00 in0.0 mm 0.19 in4.8 mm
01:50 PM 47.7°F8.7°C 39.8°F4.3°C 74% 9.2 mph WNW14.8 kmh WNW 13.8 mph22.2 kmh 29.39 in995.3 mb - 0.00 in0.0 mm 0.19 in4.8 mm
02:00 PM 47.8°F8.8°C 39.9°F4.4°C 74% 5.8 mph WNW9.3 kmh WNW 9.2 mph14.8 kmh 29.39 in995.3 mb - 0.00 in0.0 mm 0.19 in4.8 mm
02:10 PM 47.3°F8.5°C 39.1°F3.9°C 73% 6.9 mph WNW11.1 kmh WNW 12.7 mph20.4 kmh 29.38 in994.9 mb - 0.00 in0.0 mm 0.19 in4.8 mm
02:20 PM 47.0°F8.3°C 39.1°F3.9°C 74% 8.1 mph W13.0 kmh W 11.5 mph18.5 kmh 29.39 in995.3 mb - 0.00 in0.0 mm 0.19 in4.8 mm
02:30 PM 46.9°F8.3°C 39.0°F3.9°C 74% 8.1 mph WNW13.0 kmh WNW 15.0 mph24.1 kmh 29.39 in995.3 mb - 0.00 in0.0 mm 0.19 in4.8 mm
02:40 PM 46.8°F8.2°C 38.6°F3.7°C 73% 5.8 mph WNW9.3 kmh WNW 11.5 mph18.5 kmh 29.40 in995.6 mb - 0.00 in0.0 mm 0.19 in4.8 mm
02:50 PM 46.7°F8.2°C 38.5°F3.6°C 73% 5.8 mph WNW9.3 kmh WNW 8.1 mph13.0 kmh 29.39 in995.3 mb - 0.00 in0.0 mm 0.19 in4.8 mm
03:00 PM 46.6°F8.1°C 38.4°F3.6°C 73% 1.2 mph WNW1.9 kmh WNW 4.6 mph7.4 kmh 29.39 in995.3 mb - 0.00 in0.0 mm 0.19 in4.8 mm
03:10 PM 46.5°F8.1°C 38.3°F3.5°C 73% 2.3 mph WNW3.7 kmh WNW 5.8 mph9.3 kmh 29.39 in995.3 mb - 0.00 in0.0 mm 0.19 in4.8 mm
03:20 PM 46.4°F8.0°C 38.6°F3.7°C 74% 4.6 mph W7.4 kmh W 8.1 mph13.0 kmh 29.38 in994.9 mb - 0.00 in0.0 mm 0.19 in4.8 mm
03:30 PM 46.3°F7.9°C 38.1°F3.4°C 73% 3.5 mph N5.6 kmh N 8.1 mph13.0 kmh 29.38 in994.9 mb - 0.00 in0.0 mm 0.19 in4.8 mm
03:40 PM 46.3°F7.9°C 38.5°F3.6°C 74% 2.3 mph WNW3.7 kmh WNW 8.1 mph13.0 kmh 29.38 in994.9 mb - 0.00 in0.0 mm 0.19 in4.8 mm
03:50 PM 46.1°F7.8°C 38.3°F3.5°C 74% 2.3 mph W3.7 kmh W 6.9 mph11.1 kmh 29.38 in994.9 mb - 0.00 in0.0 mm 0.19 in4.8 mm
04:00 PM 45.8°F7.7°C 38.3°F3.5°C 75% Calm Calm -- 29.37 in994.6 mb - 0.00 in0.0 mm 0.19 in4.8 mm
04:10 PM 45.6°F7.6°C 37.8°F3.2°C 74% Calm Calm -- 29.37 in994.6 mb - 0.00 in0.0 mm 0.19 in4.8 mm
04:20 PM 45.4°F7.4°C 37.6°F3.1°C 74% Calm Calm -- 29.37 in994.6 mb - 0.00 in0.0 mm 0.19 in4.8 mm
04:30 PM 45.4°F7.4°C 37.6°F3.1°C 74% Calm Calm -- 29.37 in994.6 mb - 0.00 in0.0 mm 0.19 in4.8 mm
04:40 PM 45.0°F7.2°C 37.9°F3.3°C 76% Calm Calm -- 29.37 in994.6 mb - 0.00 in0.0 mm 0.19 in4.8 mm
04:50 PM 44.6°F7.0°C 37.8°F3.2°C 77% Calm Calm -- 29.36 in994.2 mb - 0.00 in0.0 mm 0.19 in4.8 mm
05:00 PM 44.3°F6.8°C 37.9°F3.3°C 78% Calm Calm -- 29.36 in994.2 mb - 0.00 in0.0 mm 0.19 in4.8 mm
05:10 PM 44.1°F6.7°C 38.0°F3.3°C 79% Calm Calm -- 29.36 in994.2 mb - 0.00 in0.0 mm 0.19 in4.8 mm
05:20 PM 44.2°F6.8°C 38.4°F3.6°C 80% 2.3 mph W3.7 kmh W 5.8 mph9.3 kmh 29.36 in994.2 mb - 0.00 in0.0 mm 0.19 in4.8 mm
05:30 PM 44.1°F6.7°C 38.3°F3.5°C 80% 2.3 mph WSW3.7 kmh WSW 5.8 mph9.3 kmh 29.36 in994.2 mb - 0.00 in0.0 mm 0.19 in4.8 mm
05:40 PM 44.0°F6.7°C 38.5°F3.6°C 81% 1.2 mph SW1.9 kmh SW 5.8 mph9.3 kmh 29.36 in994.2 mb - 0.00 in0.0 mm 0.19 in4.8 mm
05:50 PM 44.0°F6.7°C 38.9°F3.8°C 82% Calm Calm -- 29.36 in994.2 mb - 0.00 in0.0 mm 0.19 in4.8 mm
06:00 PM 44.1°F6.7°C 38.9°F3.8°C 82% Calm Calm -- 29.35 in993.9 mb - 0.00 in0.0 mm 0.19 in4.8 mm
06:10 PM 44.0°F6.7°C 38.9°F3.8°C 82% Calm Calm 4.6 mph7.4 kmh 29.34 in993.6 mb - 0.00 in0.0 mm 0.19 in4.8 mm
06:20 PM 44.1°F6.7°C 38.6°F3.7°C 81% Calm Calm -- 29.34 in993.6 mb - 0.00 in0.0 mm 0.19 in4.8 mm
06:30 PM 44.1°F6.7°C 38.6°F3.7°C 81% Calm Calm -- 29.34 in993.6 mb - 0.00 in0.0 mm 0.19 in4.8 mm
06:40 PM 44.0°F6.7°C 38.9°F3.8°C 82% Calm Calm 2.3 mph3.7 kmh 29.33 in993.2 mb - 0.00 in0.0 mm 0.19 in4.8 mm
06:50 PM 43.8°F6.6°C 38.7°F3.7°C 82% 1.2 mph W1.9 kmh W 5.8 mph9.3 kmh 29.33 in993.2 mb - 0.00 in0.0 mm 0.19 in4.8 mm
07:00 PM 43.7°F6.5°C 38.3°F3.5°C 81% 4.6 mph WNW7.4 kmh WNW 8.1 mph13.0 kmh 29.32 in992.9 mb - 0.00 in0.0 mm 0.19 in4.8 mm
07:10 PM 43.9°F6.6°C 38.1°F3.4°C 80% 3.5 mph W5.6 kmh W 6.9 mph11.1 kmh 29.32 in992.9 mb - 0.00 in0.0 mm 0.19 in4.8 mm
07:20 PM 44.0°F6.7°C 37.9°F3.3°C 79% 1.2 mph W1.9 kmh W 2.3 mph3.7 kmh 29.32 in992.9 mb - 0.00 in0.0 mm 0.19 in4.8 mm
07:30 PM 43.9°F6.6°C 37.8°F3.2°C 79% Calm Calm -- 29.32 in992.9 mb - 0.00 in0.0 mm 0.19 in4.8 mm
07:40 PM 43.8°F6.6°C 38.0°F3.3°C 80% 2.3 mph NW3.7 kmh NW 5.8 mph9.3 kmh 29.31 in992.6 mb - 0.00 in0.0 mm 0.19 in4.8 mm
07:50 PM 43.8°F6.6°C 38.3°F3.5°C 81% Calm Calm 4.6 mph7.4 kmh 29.31 in992.6 mb - 0.00 in0.0 mm 0.19 in4.8 mm
08:00 PM 43.8°F6.6°C 38.3°F3.5°C 81% Calm Calm -- 29.31 in992.6 mb - 0.00 in0.0 mm 0.19 in4.8 mm
08:10 PM 43.9°F6.6°C 38.1°F3.4°C 80% Calm Calm -- 29.31 in992.6 mb - 0.00 in0.0 mm 0.19 in4.8 mm
08:20 PM 43.9°F6.6°C 38.4°F3.6°C 81% Calm Calm -- 29.30 in992.2 mb - 0.00 in0.0 mm 0.19 in4.8 mm
08:30 PM 43.7°F6.5°C 38.3°F3.5°C 81% Calm Calm -- 29.30 in992.2 mb - 0.00 in0.0 mm 0.19 in4.8 mm
08:40 PM 43.7°F6.5°C 38.3°F3.5°C 81% Calm Calm -- 29.30 in992.2 mb - 0.00 in0.0 mm 0.19 in4.8 mm
08:50 PM 43.5°F6.4°C 38.4°F3.6°C 82% Calm Calm -- 29.30 in992.2 mb - 0.00 in0.0 mm 0.19 in4.8 mm
09:00 PM 43.2°F6.2°C 38.1°F3.4°C 82% Calm Calm -- 29.30 in992.2 mb - 0.00 in0.0 mm 0.19 in4.8 mm
09:10 PM 43.1°F6.2°C 38.2°F3.4°C 83% Calm Calm -- 29.30 in992.2 mb - 0.00 in0.0 mm 0.19 in4.8 mm
09:20 PM 42.7°F5.9°C 38.2°F3.4°C 84% Calm Calm -- 29.29 in991.9 mb - 0.01 in0.3 mm 0.20 in5.1 mm
09:30 PM 42.5°F5.8°C 38.3°F3.5°C 85% Calm Calm -- 29.29 in991.9 mb - 0.00 in0.0 mm 0.20 in5.1 mm
09:40 PM 42.5°F5.8°C 38.6°F3.7°C 86% Calm Calm -- 29.29 in991.9 mb - 0.00 in0.0 mm 0.20 in5.1 mm
09:50 PM 42.4°F5.8°C 38.5°F3.6°C 86% Calm Calm -- 29.29 in991.9 mb - 0.00 in0.0 mm 0.20 in5.1 mm
10:00 PM 42.3°F5.7°C 38.4°F3.6°C 86% Calm Calm -- 29.28 in991.5 mb - 0.00 in0.0 mm 0.20 in5.1 mm
10:10 PM 42.3°F5.7°C 38.7°F3.7°C 87% Calm Calm -- 29.28 in991.5 mb - 0.00 in0.0 mm 0.20 in5.1 mm
10:20 PM 42.2°F5.7°C 38.6°F3.7°C 87% Calm Calm -- 29.27 in991.2 mb - 0.00 in0.0 mm 0.20 in5.1 mm
10:30 PM 42.3°F5.7°C 38.7°F3.7°C 87% Calm Calm -- 29.27 in991.2 mb - 0.00 in0.0 mm 0.20 in5.1 mm
10:40 PM 42.4°F5.8°C 38.8°F3.8°C 87% Calm Calm -- 29.26 in990.9 mb - 0.00 in0.0 mm 0.20 in5.1 mm
10:50 PM 42.4°F5.8°C 38.8°F3.8°C 87% Calm Calm -- 29.25 in990.5 mb - 0.00 in0.0 mm 0.20 in5.1 mm
11:00 PM 42.4°F5.8°C 38.8°F3.8°C 87% Calm Calm 2.3 mph3.7 kmh 29.24 in990.2 mb - 0.00 in0.0 mm 0.20 in5.1 mm
11:10 PM 42.4°F5.8°C 38.8°F3.8°C 87% 1.2 mph NE1.9 kmh NE 5.8 mph9.3 kmh 29.24 in990.2 mb - 0.00 in0.0 mm 0.20 in5.1 mm
11:20 PM 42.3°F5.7°C 38.7°F3.7°C 87% 1.2 mph E1.9 kmh E 5.8 mph9.3 kmh 29.23 in989.8 mb - 0.00 in0.0 mm 0.20 in5.1 mm
11:30 PM 42.4°F5.8°C 38.8°F3.8°C 87% Calm Calm 4.6 mph7.4 kmh 29.23 in989.8 mb - 0.00 in0.0 mm 0.20 in5.1 mm
11:40 PM 42.2°F5.7°C 38.6°F3.7°C 87% 3.5 mph ENE5.6 kmh ENE 11.5 mph18.5 kmh 29.22 in989.5 mb - 0.00 in0.0 mm 0.20 in5.1 mm
11:50 PM 41.9°F5.5°C 38.3°F3.5°C 87% 2.3 mph E3.7 kmh E 6.9 mph11.1 kmh 29.21 in989.2 mb - 0.00 in0.0 mm 0.20 in5.1 mm